sensor_id;sensor_type;location;lat;lon;timestamp;pressure;altitude;pressure_sealevel;temperature;humidity
76114;BME280;64845;53.086;5.834;2022-11-10T00:00:08;101455.34;;;8.61;83.68
76114;BME280;64845;53.086;5.834;2022-11-10T00:02:34;101444.69;;;8.61;83.51
76114;BME280;64845;53.086;5.834;2022-11-10T00:04:59;101458.91;;;8.60;83.79
76114;BME280;64845;53.086;5.834;2022-11-10T00:07:26;101452.69;;;8.61;83.80
76114;BME280;64845;53.086;5.834;2022-11-10T00:09:52;101455.34;;;8.61;83.54
76114;BME280;64845;53.086;5.834;2022-11-10T00:12:18;101452.69;;;8.61;83.80
76114;BME280;64845;53.086;5.834;2022-11-10T00:14:43;101458.00;;;8.60;83.72
76114;BME280;64845;53.086;5.834;2022-11-10T00:17:35;101459.78;;;8.61;83.95
76114;BME280;64845;53.086;5.834;2022-11-10T00:20:01;101470.41;;;8.61;83.63
76114;BME280;64845;53.086;5.834;2022-11-10T00:22:27;101475.69;;;8.64;83.73
76114;BME280;64845;53.086;5.834;2022-11-10T00:24:52;101483.63;;;8.67;84.08
76114;BME280;64845;53.086;5.834;2022-11-10T00:27:18;101494.22;;;8.70;84.14
76114;BME280;64845;53.086;5.834;2022-11-10T00:29:43;101501.28;;;8.71;84.02
76114;BME280;64845;53.086;5.834;2022-11-10T00:32:09;101503.06;;;8.71;83.92
76114;BME280;64845;53.086;5.834;2022-11-10T00:34:34;101502.16;;;8.72;84.34
76114;BME280;64845;53.086;5.834;2022-11-10T00:37:00;101511.03;;;8.72;83.89
76114;BME280;64845;53.086;5.834;2022-11-10T00:39:26;101506.59;;;8.71;84.09
76114;BME280;64845;53.086;5.834;2022-11-10T00:41:51;101503.09;;;8.69;84.03
76114;BME280;64845;53.086;5.834;2022-11-10T00:44:17;101512.00;;;8.68;84.21
76114;BME280;64845;53.086;5.834;2022-11-10T00:46:42;101516.41;;;8.68;84.30
76114;BME280;64845;53.086;5.834;2022-11-10T00:49:08;101512.97;;;8.64;84.15
76114;BME280;64845;53.086;5.834;2022-11-10T00:51:33;101520.09;;;8.62;84.15
76114;BME280;64845;53.086;5.834;2022-11-10T00:53:59;101527.22;;;8.60;83.88
76114;BME280;64845;53.086;5.834;2022-11-10T00:56:24;101510.41;;;8.59;84.19
76114;BME280;64845;53.086;5.834;2022-11-10T00:58:50;101524.59;;;8.58;83.91
76114;BME280;64845;53.086;5.834;2022-11-10T01:01:17;101521.97;;;8.57;83.95
76114;BME280;64845;53.086;5.834;2022-11-10T01:03:42;101537.94;;;8.57;83.85
76114;BME280;64845;53.086;5.834;2022-11-10T01:06:10;101532.59;;;8.57;84.17
76114;BME280;64845;53.086;5.834;2022-11-10T01:08:37;101533.50;;;8.56;84.21
76114;BME280;64845;53.086;5.834;2022-11-10T01:11:04;101523.75;;;8.56;84.19
76114;BME280;64845;53.086;5.834;2022-11-10T01:13:30;101534.38;;;8.58;84.28
76114;BME280;64845;53.086;5.834;2022-11-10T01:15:55;101537.91;;;8.58;84.41
76114;BME280;64845;53.086;5.834;2022-11-10T01:18:21;101526.38;;;8.59;84.13
76114;BME280;64845;53.086;5.834;2022-11-10T01:20:50;101521.03;;;8.59;84.25
76114;BME280;64845;53.086;5.834;2022-11-10T01:23:16;101521.91;;;8.60;84.53
76114;BME280;64845;53.086;5.834;2022-11-10T01:25:41;101527.22;;;8.60;84.44
76114;BME280;64845;53.086;5.834;2022-11-10T01:28:07;101536.97;;;8.61;84.44
76114;BME280;64845;53.086;5.834;2022-11-10T01:30:32;101540.53;;;8.60;84.49
76114;BME280;64845;53.086;5.834;2022-11-10T01:32:58;101540.59;;;8.58;84.46
76114;BME280;64845;53.086;5.834;2022-11-10T01:35:23;101547.72;;;8.56;84.22
76114;BME280;64845;53.086;5.834;2022-11-10T01:37:50;101556.56;;;8.57;84.32
76114;BME280;64845;53.086;5.834;2022-11-10T01:40:16;101554.81;;;8.56;84.31
76114;BME280;64845;53.086;5.834;2022-11-10T01:42:50;101564.59;;;8.55;84.62
76114;BME280;64845;53.086;5.834;2022-11-10T01:48:00;101567.25;;;8.55;84.42
76114;BME280;64845;53.086;5.834;2022-11-10T01:50:31;101562.78;;;8.56;84.43
76114;BME280;64845;53.086;5.834;2022-11-10T01:53:01;101555.69;;;8.56;84.63
76114;BME280;64845;53.086;5.834;2022-11-10T01:55:27;101556.56;;;8.57;84.42
76114;BME280;64845;53.086;5.834;2022-11-10T01:57:54;101556.56;;;8.57;84.36
76114;BME280;64845;53.086;5.834;2022-11-10T02:00:21;101555.66;;;8.58;84.75
76114;BME280;64845;53.086;5.834;2022-11-10T02:02:51;101545.91;;;8.58;84.53
76114;BME280;64845;53.086;5.834;2022-11-10T02:05:20;101552.09;;;8.59;84.62
76114;BME280;64845;53.086;5.834;2022-11-10T02:07:45;101560.06;;;8.60;84.55
76114;BME280;64845;53.086;5.834;2022-11-10T02:10:16;101565.41;;;8.60;84.71
76114;BME280;64845;53.086;5.834;2022-11-10T02:12:42;101572.47;;;8.61;84.87
76114;BME280;64845;53.086;5.834;2022-11-10T02:15:11;101569.78;;;8.63;84.53
76114;BME280;64845;53.086;5.834;2022-11-10T02:17:37;101571.53;;;8.64;84.91
76114;BME280;64845;53.086;5.834;2022-11-10T02:20:06;101571.47;;;8.67;84.75
76114;BME280;64845;53.086;5.834;2022-11-10T02:22:34;101573.22;;;8.68;85.02
76114;BME280;64845;53.086;5.834;2022-11-10T02:24:59;101575.84;;;8.71;84.51
76114;BME280;64845;53.086;5.834;2022-11-10T02:27:25;101579.38;;;8.72;84.90
76114;BME280;64845;53.086;5.834;2022-11-10T02:29:50;101573.09;;;8.74;84.96
76114;BME280;64845;53.086;5.834;2022-11-10T02:32:15;101565.09;;;8.76;84.82
76114;BME280;64845;53.086;5.834;2022-11-10T02:34:41;101576.53;;;8.80;84.85
76114;BME280;64845;53.086;5.834;2022-11-10T02:37:07;101580.94;;;8.82;84.96
76114;BME280;64845;53.086;5.834;2022-11-10T02:39:34;101586.19;;;8.85;85.05
76114;BME280;64845;53.086;5.834;2022-11-10T02:41:59;101600.34;;;8.87;84.96
76114;BME280;64845;53.086;5.834;2022-11-10T02:44:25;101611.91;;;8.88;84.97
76114;BME280;64845;53.086;5.834;2022-11-10T02:46:50;101611.88;;;8.89;85.10
76114;BME280;64845;53.086;5.834;2022-11-10T02:49:15;101612.72;;;8.91;85.06
76114;BME280;64845;53.086;5.834;2022-11-10T02:51:41;101610.94;;;8.92;85.14
76114;BME280;64845;53.086;5.834;2022-11-10T02:54:06;101622.41;;;8.94;84.95
76114;BME280;64845;53.086;5.834;2022-11-10T02:56:32;101616.22;;;8.94;85.21
76114;BME280;64845;53.086;5.834;2022-11-10T02:58:57;101628.66;;;8.95;85.15
76114;BME280;64845;53.086;5.834;2022-11-10T03:01:22;101631.31;;;8.95;84.89
76114;BME280;64845;53.086;5.834;2022-11-10T03:03:48;101624.19;;;8.95;85.19
76114;BME280;64845;53.086;5.834;2022-11-10T03:06:13;101632.16;;;8.95;85.42
76114;BME280;64845;53.086;5.834;2022-11-10T03:08:39;101626.84;;;8.97;85.10
76114;BME280;64845;53.086;5.834;2022-11-10T03:11:04;101627.75;;;8.94;85.43
76114;BME280;64845;53.086;5.834;2022-11-10T03:13:30;101628.66;;;8.95;85.29
76114;BME280;64845;53.086;5.834;2022-11-10T03:15:55;101626.88;;;8.94;85.34
76114;BME280;64845;53.086;5.834;2022-11-10T03:18:21;101640.16;;;8.95;85.34
76114;BME280;64845;53.086;5.834;2022-11-10T03:20:47;101642.88;;;8.94;85.47
76114;BME280;64845;53.086;5.834;2022-11-10T03:23:15;101640.16;;;8.95;85.09
76114;BME280;64845;53.086;5.834;2022-11-10T03:25:40;101643.72;;;8.96;85.27
76114;BME280;64845;53.086;5.834;2022-11-10T03:28:05;101650.75;;;8.98;85.45
76114;BME280;64845;53.086;5.834;2022-11-10T03:30:31;101659.59;;;9.00;85.32
76114;BME280;64845;53.086;5.834;2022-11-10T03:32:56;101667.59;;;9.00;85.61
76114;BME280;64845;53.086;5.834;2022-11-10T03:35:22;101666.69;;;9.01;85.45
76114;BME280;64845;53.086;5.834;2022-11-10T03:37:47;101672.88;;;9.03;85.34
76114;BME280;64845;53.086;5.834;2022-11-10T03:40:12;101673.72;;;9.05;85.87
76114;BME280;64845;53.086;5.834;2022-11-10T03:42:42;101687.91;;;9.06;85.30
76114;BME280;64845;53.086;5.834;2022-11-10T03:45:09;101686.13;;;9.06;85.76
76114;BME280;64845;53.086;5.834;2022-11-10T03:47:34;101699.41;;;9.08;85.53
76114;BME280;64845;53.086;5.834;2022-11-10T03:50:00;101702.09;;;9.08;85.50
76114;BME280;64845;53.086;5.834;2022-11-10T03:52:25;101705.63;;;9.09;85.62
76114;BME280;64845;53.086;5.834;2022-11-10T03:54:50;101703.00;;;9.07;85.61
76114;BME280;64845;53.086;5.834;2022-11-10T03:57:16;101719.88;;;9.07;85.84
76114;BME280;64845;53.086;5.834;2022-11-10T03:59:41;101714.53;;;9.07;85.82
76114;BME280;64845;53.086;5.834;2022-11-10T04:02:06;101718.09;;;9.06;85.62
76114;BME280;64845;53.086;5.834;2022-11-10T04:04:32;101707.44;;;9.06;85.74
76114;BME280;64845;53.086;5.834;2022-11-10T04:07:16;101707.44;;;9.06;85.89
76114;BME280;64845;53.086;5.834;2022-11-10T04:10:00;101717.16;;;9.09;85.56
76114;BME280;64845;53.086;5.834;2022-11-10T04:12:25;101717.16;;;9.09;85.94
76114;BME280;64845;53.086;5.834;2022-11-10T04:15:10;101711.84;;;9.09;85.69
76114;BME280;64845;53.086;5.834;2022-11-10T04:17:55;101710.97;;;9.09;85.52
76114;BME280;64845;53.086;5.834;2022-11-10T04:20:40;101710.94;;;9.10;85.81
76114;BME280;64845;53.086;5.834;2022-11-10T04:23:05;101712.72;;;9.10;85.70
76114;BME280;64845;53.086;5.834;2022-11-10T04:25:49;101704.72;;;9.10;85.83
76114;BME280;64845;53.086;5.834;2022-11-10T04:28:33;101717.16;;;9.09;85.66
76114;BME280;64845;53.086;5.834;2022-11-10T04:30:59;101719.81;;;9.09;85.76
76114;BME280;64845;53.086;5.834;2022-11-10T04:33:24;101723.38;;;9.10;85.57
76114;BME280;64845;53.086;5.834;2022-11-10T04:35:49;101730.47;;;9.09;86.00
76114;BME280;64845;53.086;5.834;2022-11-10T04:38:15;101726.91;;;9.10;86.03
76114;BME280;64845;53.086;5.834;2022-11-10T04:40:40;101734.00;;;9.11;85.88
76114;BME280;64845;53.086;5.834;2022-11-10T04:43:05;101734.91;;;9.12;85.70
76114;BME280;64845;53.086;5.834;2022-11-10T04:45:32;101731.28;;;9.13;85.74
76114;BME280;64845;53.086;5.834;2022-11-10T04:47:57;101744.56;;;9.16;86.12
76114;BME280;64845;53.086;5.834;2022-11-10T04:50:22;101754.31;;;9.18;86.01
76114;BME280;64845;53.086;5.834;2022-11-10T04:52:48;101742.69;;;9.21;85.85
76114;BME280;64845;53.086;5.834;2022-11-10T04:55:13;101752.47;;;9.22;86.04
76114;BME280;64845;53.086;5.834;2022-11-10T04:57:39;101745.31;;;9.24;85.84
76114;BME280;64845;53.086;5.834;2022-11-10T05:00:05;101739.97;;;9.24;85.83
76114;BME280;64845;53.086;5.834;2022-11-10T05:02:31;101734.66;;;9.24;85.80
76114;BME280;64845;53.086;5.834;2022-11-10T05:04:57;101732.00;;;9.24;86.01
76114;BME280;64845;53.086;5.834;2022-11-10T05:07:22;101736.41;;;9.25;85.91
76114;BME280;64845;53.086;5.834;2022-11-10T05:09:48;101736.41;;;9.25;85.68
76114;BME280;64845;53.086;5.834;2022-11-10T05:12:13;101745.28;;;9.26;86.12
76114;BME280;64845;53.086;5.834;2022-11-10T05:14:38;101748.84;;;9.26;85.91
76114;BME280;64845;53.086;5.834;2022-11-10T05:17:04;101751.50;;;9.25;85.72
76114;BME280;64845;53.086;5.834;2022-11-10T05:19:29;101749.75;;;9.25;86.04
76114;BME280;64845;53.086;5.834;2022-11-10T05:21:54;101755.97;;;9.24;85.79
76114;BME280;64845;53.086;5.834;2022-11-10T05:24:20;101764.88;;;9.23;85.88
76114;BME280;64845;53.086;5.834;2022-11-10T05:26:45;101761.34;;;9.21;85.89
76114;BME280;64845;53.086;5.834;2022-11-10T05:29:10;101762.25;;;9.20;85.80
76114;BME280;64845;53.086;5.834;2022-11-10T05:31:36;101766.72;;;9.19;86.05
76114;BME280;64845;53.086;5.834;2022-11-10T05:34:01;101772.06;;;9.19;85.79
76114;BME280;64845;53.086;5.834;2022-11-10T05:36:26;101780.97;;;9.18;85.76
76114;BME280;64845;53.086;5.834;2022-11-10T05:38:52;101775.63;;;9.18;85.63
76114;BME280;64845;53.086;5.834;2022-11-10T05:41:17;101766.75;;;9.18;85.78
76114;BME280;64845;53.086;5.834;2022-11-10T05:43:43;101773.81;;;9.20;85.96
76114;BME280;64845;53.086;5.834;2022-11-10T05:46:09;101772.91;;;9.20;86.22
76114;BME280;64845;53.086;5.834;2022-11-10T05:48:34;101768.50;;;9.19;85.82
76114;BME280;64845;53.086;5.834;2022-11-10T05:50:59;101762.31;;;9.18;85.56
76114;BME280;64845;53.086;5.834;2022-11-10T05:53:25;101769.41;;;9.18;86.03
76114;BME280;64845;53.086;5.834;2022-11-10T05:55:51;101771.16;;;9.19;85.75
76114;BME280;64845;53.086;5.834;2022-11-10T05:58:16;101776.50;;;9.19;86.17
76114;BME280;64845;53.086;5.834;2022-11-10T06:00:41;101787.16;;;9.19;85.94
76114;BME280;64845;53.086;5.834;2022-11-10T06:03:15;101781.81;;;9.20;86.03
76114;BME280;64845;53.086;5.834;2022-11-10T06:05:41;101787.19;;;9.17;85.85
76114;BME280;64845;53.086;5.834;2022-11-10T06:08:07;101789.00;;;9.15;85.86
76114;BME280;64845;53.086;5.834;2022-11-10T06:10:34;101793.44;;;9.15;85.88
76114;BME280;64845;53.086;5.834;2022-11-10T06:12:59;101805.88;;;9.14;85.69
76114;BME280;64845;53.086;5.834;2022-11-10T06:15:25;101812.13;;;9.13;85.82
76114;BME280;64845;53.086;5.834;2022-11-10T06:17:51;101806.84;;;9.10;85.81
76114;BME280;64845;53.086;5.834;2022-11-10T06:20:17;101809.50;;;9.10;86.04
76114;BME280;64845;53.086;5.834;2022-11-10T06:22:43;101811.28;;;9.11;86.07
76114;BME280;64845;53.086;5.834;2022-11-10T06:25:10;101813.06;;;9.11;86.03
76114;BME280;64845;53.086;5.834;2022-11-10T06:27:35;101814.84;;;9.10;85.94
76114;BME280;64845;53.086;5.834;2022-11-10T06:30:01;101820.16;;;9.10;85.76
76114;BME280;64845;53.086;5.834;2022-11-10T06:32:27;101826.34;;;9.12;86.04
76114;BME280;64845;53.086;5.834;2022-11-10T06:34:52;101827.22;;;9.13;85.84
76114;BME280;64845;53.086;5.834;2022-11-10T06:37:17;101825.44;;;9.13;85.80
76114;BME280;64845;53.086;5.834;2022-11-10T06:39:43;101832.53;;;9.14;86.18
76114;BME280;64845;53.086;5.834;2022-11-10T06:42:08;101831.63;;;9.15;86.10
76114;BME280;64845;53.086;5.834;2022-11-10T06:44:34;101836.91;;;9.17;86.03
76114;BME280;64845;53.086;5.834;2022-11-10T06:46:59;101850.28;;;9.15;85.71
76114;BME280;64845;53.086;5.834;2022-11-10T06:49:24;101848.47;;;9.16;86.15
76114;BME280;64845;53.086;5.834;2022-11-10T06:51:50;101862.72;;;9.16;86.30
76114;BME280;64845;53.086;5.834;2022-11-10T06:54:16;101866.22;;;9.17;86.11
76114;BME280;64845;53.086;5.834;2022-11-10T06:56:41;101869.78;;;9.17;86.14
76114;BME280;64845;53.086;5.834;2022-11-10T06:59:07;101874.22;;;9.17;86.28
76114;BME280;64845;53.086;5.834;2022-11-10T07:01:32;101876.91;;;9.17;86.20
76114;BME280;64845;53.086;5.834;2022-11-10T07:03:57;101876.03;;;9.16;85.74
76114;BME280;64845;53.086;5.834;2022-11-10T07:06:23;101868.03;;;9.15;86.05
76114;BME280;64845;53.086;5.834;2022-11-10T07:08:48;101869.81;;;9.16;86.17
76114;BME280;64845;53.086;5.834;2022-11-10T07:11:14;101861.81;;;9.16;86.13
76114;BME280;64845;53.086;5.834;2022-11-10T07:13:39;101852.06;;;9.16;85.99
76114;BME280;64845;53.086;5.834;2022-11-10T07:16:06;101854.72;;;9.16;86.10
76114;BME280;64845;53.086;5.834;2022-11-10T07:18:35;101860.91;;;9.17;86.28
76114;BME280;64845;53.086;5.834;2022-11-10T07:21:02;101872.47;;;9.16;86.33
76114;BME280;64845;53.086;5.834;2022-11-10T07:23:29;101874.22;;;9.17;86.26
76114;BME280;64845;53.086;5.834;2022-11-10T07:25:54;101888.47;;;9.16;86.06
76114;BME280;64845;53.086;5.834;2022-11-10T07:28:19;101879.56;;;9.18;86.26
76114;BME280;64845;53.086;5.834;2022-11-10T07:30:45;101893.75;;;9.19;86.29
76114;BME280;64845;53.086;5.834;2022-11-10T07:33:12;101904.41;;;9.20;85.97
76114;BME280;64845;53.086;5.834;2022-11-10T07:35:38;101898.16;;;9.20;86.27
76114;BME280;64845;53.086;5.834;2022-11-10T07:38:05;101902.59;;;9.21;86.17
76114;BME280;64845;53.086;5.834;2022-11-10T07:40:31;101920.31;;;9.25;86.23
76114;BME280;64845;53.086;5.834;2022-11-10T07:42:57;101915.84;;;9.26;86.27
76114;BME280;64845;53.086;5.834;2022-11-10T07:45:23;101914.03;;;9.28;86.15
76114;BME280;64845;53.086;5.834;2022-11-10T07:47:49;101923.75;;;9.32;86.13
76114;BME280;64845;53.086;5.834;2022-11-10T07:50:15;101909.47;;;9.34;86.23
76114;BME280;64845;53.086;5.834;2022-11-10T07:52:41;101905.00;;;9.38;86.25
76114;BME280;64845;53.086;5.834;2022-11-10T07:55:07;101904.00;;;9.42;86.11
76114;BME280;64845;53.086;5.834;2022-11-10T07:57:33;101907.53;;;9.44;86.48
76114;BME280;64845;53.086;5.834;2022-11-10T07:59:58;101911.06;;;9.48;86.43
76114;BME280;64845;53.086;5.834;2022-11-10T08:02:24;101907.41;;;9.53;86.31
76114;BME280;64845;53.086;5.834;2022-11-10T08:04:49;101895.78;;;9.58;86.05
76114;BME280;64845;53.086;5.834;2022-11-10T08:07:15;101913.44;;;9.63;86.31
76114;BME280;64845;53.086;5.834;2022-11-10T08:09:40;101924.91;;;9.68;86.19
76114;BME280;64845;53.086;5.834;2022-11-10T08:12:06;101941.69;;;9.74;86.51
76114;BME280;64845;53.086;5.834;2022-11-10T08:14:31;101935.44;;;9.76;86.54
76114;BME280;64845;53.086;5.834;2022-11-10T08:16:56;101931.84;;;9.79;86.25
76114;BME280;64845;53.086;5.834;2022-11-10T08:19:22;101929.97;;;9.82;85.93
76114;BME280;64845;53.086;5.834;2022-11-10T08:21:47;101941.53;;;9.83;85.90
76114;BME280;64845;53.086;5.834;2022-11-10T08:24:12;101950.41;;;9.83;86.12
76114;BME280;64845;53.086;5.834;2022-11-10T08:26:38;101952.22;;;9.83;85.91
76114;BME280;64845;53.086;5.834;2022-11-10T08:29:03;101955.78;;;9.82;86.26
76114;BME280;64845;53.086;5.834;2022-11-10T08:31:31;101963.75;;;9.83;85.88
76114;BME280;64845;53.086;5.834;2022-11-10T08:33:57;101961.97;;;9.84;86.04
76114;BME280;64845;53.086;5.834;2022-11-10T08:36:22;101964.66;;;9.84;86.15
76114;BME280;64845;53.086;5.834;2022-11-10T08:38:48;101978.84;;;9.86;86.11
76114;BME280;64845;53.086;5.834;2022-11-10T08:41:13;101980.59;;;9.87;85.88
76114;BME280;64845;53.086;5.834;2022-11-10T08:43:40;101988.56;;;9.90;86.23
76114;BME280;64845;53.086;5.834;2022-11-10T08:46:06;101989.38;;;9.94;86.28
76114;BME280;64845;53.086;5.834;2022-11-10T08:48:31;101990.19;;;9.97;85.91
76114;BME280;64845;53.086;5.834;2022-11-10T08:50:58;101995.47;;;10.01;85.67
76114;BME280;64845;53.086;5.834;2022-11-10T08:53:24;102001.63;;;10.04;85.86
76114;BME280;64845;53.086;5.834;2022-11-10T08:55:50;101990.91;;;10.07;85.95
76114;BME280;64845;53.086;5.834;2022-11-10T08:58:20;102006.00;;;10.10;86.13
76114;BME280;64845;53.086;5.834;2022-11-10T09:00:46;102007.69;;;10.14;85.80
76114;BME280;64845;53.086;5.834;2022-11-10T09:03:17;102005.81;;;10.19;85.61
76114;BME280;64845;53.086;5.834;2022-11-10T09:05:44;102012.91;;;10.20;85.70
76114;BME280;64845;53.086;5.834;2022-11-10T09:08:10;102011.13;;;10.21;86.07
76114;BME280;64845;53.086;5.834;2022-11-10T09:10:39;102013.78;;;10.21;85.99
76114;BME280;64845;53.086;5.834;2022-11-10T09:13:05;102022.72;;;10.20;85.92
76114;BME280;64845;53.086;5.834;2022-11-10T09:15:31;102022.78;;;10.15;85.56
76114;BME280;64845;53.086;5.834;2022-11-10T09:17:58;102017.44;;;10.15;85.95
76114;BME280;64845;53.086;5.834;2022-11-10T09:20:24;102018.41;;;10.12;85.76
76114;BME280;64845;53.086;5.834;2022-11-10T09:22:50;102026.41;;;10.12;85.67
76114;BME280;64845;53.086;5.834;2022-11-10T09:25:16;102027.28;;;10.13;85.77
76114;BME280;64845;53.086;5.834;2022-11-10T09:27:41;102036.09;;;10.18;85.50
76114;BME280;64845;53.086;5.834;2022-11-10T09:30:07;102041.31;;;10.24;85.65
76114;BME280;64845;53.086;5.834;2022-11-10T09:32:33;102036.69;;;10.33;85.62
76114;BME280;64845;53.086;5.834;2022-11-10T09:34:59;102033.91;;;10.40;85.45
76114;BME280;64845;53.086;5.834;2022-11-10T09:37:25;102043.63;;;10.46;85.39
76114;BME280;64845;53.086;5.834;2022-11-10T09:39:51;102047.09;;;10.50;85.59
76114;BME280;64845;53.086;5.834;2022-11-10T09:42:30;102059.56;;;10.51;85.55
76114;BME280;64845;53.086;5.834;2022-11-10T09:45:02;102068.44;;;10.51;85.42
76114;BME280;64845;53.086;5.834;2022-11-10T09:48:06;102070.19;;;10.54;85.30
76114;BME280;64845;53.086;5.834;2022-11-10T09:53:20;102075.44;;;10.58;85.44
76114;BME280;64845;53.086;5.834;2022-11-10T09:55:57;102079.91;;;10.58;85.53
76114;BME280;64845;53.086;5.834;2022-11-10T09:58:26;102100.28;;;10.62;85.22
76114;BME280;64845;53.086;5.834;2022-11-10T10:01:11;102095.84;;;10.63;85.20
76114;BME280;64845;53.086;5.834;2022-11-10T10:03:46;102091.34;;;10.65;85.20
76114;BME280;64845;53.086;5.834;2022-11-10T10:06:14;102105.50;;;10.68;85.18
76114;BME280;64845;53.086;5.834;2022-11-10T10:22:59;102119.47;;;10.84;85.20
76114;BME280;64845;53.086;5.834;2022-11-10T10:25:30;102122.09;;;10.86;84.82
76114;BME280;64845;53.086;5.834;2022-11-10T10:28:03;102117.66;;;10.86;84.90
76114;BME280;64845;53.086;5.834;2022-11-10T10:30:29;102123.81;;;10.88;84.92
76114;BME280;64845;53.086;5.834;2022-11-10T10:32:59;102129.16;;;10.90;84.82
76114;BME280;64845;53.086;5.834;2022-11-10T10:35:27;102123.81;;;10.90;84.88
76114;BME280;64845;53.086;5.834;2022-11-10T10:37:55;102131.78;;;10.92;85.00
76114;BME280;64845;53.086;5.834;2022-11-10T10:40:23;102125.56;;;10.91;85.00
76114;BME280;64845;53.086;5.834;2022-11-10T10:42:49;102137.13;;;10.92;84.90
76114;BME280;64845;53.086;5.834;2022-11-10T10:45:26;102138.94;;;10.89;84.73
76114;BME280;64845;53.086;5.834;2022-11-10T10:47:54;102133.59;;;10.89;84.73
76114;BME280;64845;53.086;5.834;2022-11-10T10:50:21;102138.94;;;10.91;84.51
76114;BME280;64845;53.086;5.834;2022-11-10T10:55:33;102138.94;;;10.89;84.74
76114;BME280;64845;53.086;5.834;2022-11-10T10:58:04;102152.31;;;10.89;84.61
76114;BME280;64845;53.086;5.834;2022-11-10T11:00:30;102154.16;;;10.87;84.54
76114;BME280;64845;53.086;5.834;2022-11-10T11:03:23;102155.88;;;10.88;84.37
76114;BME280;64845;53.086;5.834;2022-11-10T11:11:27;102160.41;;;10.86;84.67
76114;BME280;64845;53.086;5.834;2022-11-10T11:14:12;102163.94;;;10.87;84.70
76114;BME280;64845;53.086;5.834;2022-11-10T11:17:00;102160.41;;;10.85;84.67
76114;BME280;64845;53.086;5.834;2022-11-10T11:19:29;102158.66;;;10.84;84.31
76114;BME280;64845;53.086;5.834;2022-11-10T11:30:09;102172.91;;;10.83;84.90
76114;BME280;64845;53.086;5.834;2022-11-10T11:35:48;102187.19;;;10.82;84.53
76114;BME280;64845;53.086;5.834;2022-11-10T11:41:02;102180.97;;;10.81;84.60
76114;BME280;64845;53.086;5.834;2022-11-10T11:47:39;102186.28;;;10.84;84.68
76114;BME280;64845;53.086;5.834;2022-11-10T11:49:36;102188.91;;;10.86;84.56
76114;BME280;64845;53.086;5.834;2022-11-10T11:52:30;102189.72;;;10.89;84.75
76114;BME280;64845;53.086;5.834;2022-11-10T12:00:58;102176.28;;;10.94;84.53
76114;BME280;64845;53.086;5.834;2022-11-10T12:06:46;102183.25;;;11.03;84.44
76114;BME280;64845;53.086;5.834;2022-11-10T12:09:26;102184.00;;;11.10;84.62
76114;BME280;64845;53.086;5.834;2022-11-10T12:20:23;102195.41;;;11.19;84.60
76114;BME280;64845;53.086;5.834;2022-11-10T12:23:24;102184.72;;;11.19;84.34
76114;BME280;64845;53.086;5.834;2022-11-10T12:28:44;102204.28;;;11.20;84.30
76114;BME280;64845;53.086;5.834;2022-11-10T12:31:20;102199.84;;;11.21;84.17
76114;BME280;64845;53.086;5.834;2022-11-10T12:34:04;102205.19;;;11.21;84.03
76114;BME280;64845;53.086;5.834;2022-11-10T12:36:33;102201.59;;;11.22;84.40
76114;BME280;64845;53.086;5.834;2022-11-10T12:39:20;102198.88;;;11.23;84.19
76114;BME280;64845;53.086;5.834;2022-11-10T12:41:55;102197.13;;;11.24;84.44
76114;BME280;64845;53.086;5.834;2022-11-10T12:46:59;102191.75;;;11.24;84.19
76114;BME280;64845;53.086;5.834;2022-11-10T12:49:34;102191.75;;;11.24;84.57
76114;BME280;64845;53.086;5.834;2022-11-10T12:54:40;102202.34;;;11.28;84.50
76114;BME280;64845;53.086;5.834;2022-11-10T12:57:13;102197.88;;;11.30;84.39
76114;BME280;64845;53.086;5.834;2022-11-10T12:59:48;102201.38;;;11.32;84.39
76114;BME280;64845;53.086;5.834;2022-11-10T13:02:33;102201.38;;;11.32;84.09
76114;BME280;64845;53.086;5.834;2022-11-10T13:07:42;102210.28;;;11.33;84.39
76114;BME280;64845;53.086;5.834;2022-11-10T13:20:55;102213.81;;;11.35;84.23
76114;BME280;64845;53.086;5.834;2022-11-10T13:24:16;102207.56;;;11.36;84.26
76114;BME280;64845;53.086;5.834;2022-11-10T13:32:29;102202.03;;;11.45;84.18
76114;BME280;64845;53.086;5.834;2022-11-10T13:37:58;102212.50;;;11.55;84.38
76114;BME280;64845;53.086;5.834;2022-11-10T13:45:43;102226.56;;;11.66;84.08
76114;BME280;64845;53.086;5.834;2022-11-10T13:58:33;102228.22;;;11.72;84.03
76114;BME280;64845;53.086;5.834;2022-11-10T14:06:20;102256.81;;;11.70;84.00
76114;BME280;64845;53.086;5.834;2022-11-10T14:09:04;102257.66;;;11.70;84.11
76114;BME280;64845;53.086;5.834;2022-11-10T14:11:38;102261.25;;;11.71;83.94
76114;BME280;64845;53.086;5.834;2022-11-10T14:14:24;102271.06;;;11.70;83.96
76114;BME280;64845;53.086;5.834;2022-11-10T14:16:52;102280.00;;;11.69;84.10
76114;BME280;64845;53.086;5.834;2022-11-10T14:19:40;102275.59;;;11.67;83.83
76114;BME280;64845;53.086;5.834;2022-11-10T14:22:25;102274.72;;;11.66;84.02
76114;BME280;64845;53.086;5.834;2022-11-10T14:25:25;102276.50;;;11.66;83.98
76114;BME280;64845;53.086;5.834;2022-11-10T14:27:51;102282.78;;;11.64;83.70
76114;BME280;64845;53.086;5.834;2022-11-10T14:30:24;102281.91;;;11.64;84.06
76114;BME280;64845;53.086;5.834;2022-11-10T14:32:58;102287.25;;;11.64;83.90
76114;BME280;64845;53.086;5.834;2022-11-10T14:35:27;102279.28;;;11.61;83.84
76114;BME280;64845;53.086;5.834;2022-11-10T14:38:03;102285.50;;;11.61;84.02
76114;BME280;64845;53.086;5.834;2022-11-10T14:40:29;102279.28;;;11.61;83.99
76114;BME280;64845;53.086;5.834;2022-11-10T14:42:55;102288.16;;;11.63;83.90
76114;BME280;64845;53.086;5.834;2022-11-10T14:45:26;102308.72;;;11.61;84.06
76114;BME280;64845;53.086;5.834;2022-11-10T14:47:52;102308.72;;;11.59;83.82
76114;BME280;64845;53.086;5.834;2022-11-10T14:50:22;102309.63;;;11.60;84.06
76114;BME280;64845;53.086;5.834;2022-11-10T14:52:52;102308.78;;;11.58;84.04
76114;BME280;64845;53.086;5.834;2022-11-10T14:55:24;102314.13;;;11.58;83.77
76114;BME280;64845;53.086;5.834;2022-11-10T14:57:59;102313.22;;;11.57;84.27